createdAt,value
2023-04-20T00:02:59.733Z,6.10
2023-04-20T00:06:44.099Z,6.00
2023-04-20T00:10:26.226Z,5.90
2023-04-20T00:14:08.275Z,5.90
2023-04-20T00:17:50.896Z,5.90
2023-04-20T00:21:32.958Z,5.80
2023-04-20T00:25:14.951Z,5.80
2023-04-20T00:28:57.552Z,5.70
2023-04-20T00:32:39.558Z,5.60
2023-04-20T00:36:24.622Z,5.50
2023-04-20T00:40:09.356Z,5.50
2023-04-20T00:43:52.710Z,5.40
2023-04-20T00:47:34.815Z,5.40
2023-04-20T00:51:17.070Z,5.30
2023-04-20T00:54:59.306Z,5.30
2023-04-20T00:58:44.452Z,5.20
2023-04-20T01:02:29.258Z,5.20
2023-04-20T01:06:13.911Z,5.00
2023-04-20T01:09:56.449Z,5.00
2023-04-20T01:13:38.812Z,4.90
2023-04-20T01:17:21.284Z,4.90
2023-04-20T01:21:05.272Z,4.90
2023-04-20T01:24:47.810Z,4.90
2023-04-20T01:28:29.924Z,5.00
2023-04-20T01:32:12.505Z,5.00
2023-04-20T01:35:54.901Z,4.90
2023-04-20T01:39:39.270Z,4.90
2023-04-20T01:43:23.750Z,4.90
2023-04-20T01:47:05.913Z,4.90
2023-04-20T01:50:51.851Z,4.90
2023-04-20T01:54:33.839Z,4.80
2023-04-20T01:58:15.995Z,4.80
2023-04-20T02:01:58.103Z,4.80
2023-04-20T02:05:40.301Z,4.70
2023-04-20T02:09:22.273Z,4.70
2023-04-20T02:13:04.278Z,4.60
2023-04-20T02:16:46.987Z,4.60
2023-04-20T02:20:29.175Z,4.50
2023-04-20T02:24:11.264Z,4.50
2023-04-20T02:27:53.394Z,4.50
2023-04-20T02:31:35.799Z,4.40
2023-04-20T02:35:17.850Z,4.30
2023-04-20T02:38:59.991Z,4.30
2023-04-20T02:42:42.713Z,4.30
2023-04-20T02:46:24.837Z,4.20
2023-04-20T02:50:07.583Z,4.20
2023-04-20T02:53:49.546Z,4.20
2023-04-20T02:57:31.580Z,4.10
2023-04-20T03:01:13.634Z,4.10
2023-04-20T03:04:55.709Z,4.10
2023-04-20T03:08:37.601Z,4.10
2023-04-20T03:12:20.057Z,4.10
2023-04-20T03:16:02.289Z,4.10
2023-04-20T03:19:44.537Z,4.00
2023-04-20T03:23:27.416Z,4.00
2023-04-20T03:27:09.616Z,4.00
2023-04-20T03:30:51.562Z,3.90
2023-04-20T03:34:36.231Z,3.80
2023-04-20T03:38:18.138Z,3.80
2023-04-20T03:42:00.250Z,3.70
2023-04-20T03:45:42.267Z,3.60
2023-04-20T03:49:27.967Z,3.60
2023-04-20T03:53:10.065Z,3.50
2023-04-20T03:56:52.146Z,3.40
2023-04-20T04:00:34.128Z,3.40
2023-04-20T04:04:16.367Z,3.30
2023-04-20T04:07:58.421Z,3.20
2023-04-20T04:11:40.477Z,3.20
2023-04-20T04:15:22.393Z,3.20
2023-04-20T04:19:04.406Z,3.20
2023-04-20T04:22:46.439Z,3.20
2023-04-20T04:26:28.673Z,3.20
2023-04-20T04:30:11.310Z,3.20
2023-04-20T04:33:53.267Z,3.10
2023-04-20T04:37:35.198Z,3.10
2023-04-20T04:41:17.724Z,3.20
2023-04-20T04:45:02.057Z,3.20
2023-04-20T04:48:44.123Z,3.20
2023-04-20T04:52:26.067Z,3.30
2023-04-20T04:56:08.331Z,3.30
2023-04-20T04:59:50.417Z,3.30
2023-04-20T05:03:32.638Z,3.20
2023-04-20T05:07:15.287Z,3.30
2023-04-20T05:10:57.958Z,3.30
2023-04-20T05:14:52.384Z,3.30
2023-04-20T05:18:43.060Z,3.40
2023-04-20T05:26:33.842Z,3.40
2023-04-20T05:30:21.264Z,3.50
2023-04-20T05:34:25.818Z,3.50
2023-04-20T05:38:08.168Z,3.50
2023-04-20T05:41:53.979Z,3.60
2023-04-20T05:45:42.543Z,3.60
2023-04-20T05:49:25.522Z,3.70
2023-04-20T05:53:07.851Z,3.70
2023-04-20T05:56:58.999Z,3.80
2023-04-20T06:00:41.588Z,3.90
2023-04-20T06:04:24.490Z,4.10
2023-04-20T06:08:14.084Z,4.20
2023-04-20T06:11:57.456Z,4.40
2023-04-20T06:15:41.817Z,4.60
2023-04-20T06:19:28.446Z,4.80
2023-04-20T06:23:11.946Z,5.10
2023-04-20T06:26:55.199Z,5.30
2023-04-20T06:30:45.267Z,5.60
2023-04-20T06:34:28.034Z,5.90
2023-04-20T06:38:16.666Z,6.20
2023-04-20T06:42:06.193Z,6.50
2023-04-20T06:46:06.572Z,6.90
2023-04-20T06:49:55.227Z,7.20
2023-04-20T06:53:38.166Z,7.50
2023-04-20T07:05:42.743Z,8.40
2023-04-20T07:09:25.189Z,8.90
2023-04-20T07:21:43.664Z,10.00
2023-04-20T07:25:34.800Z,10.40
2023-04-20T07:29:26.332Z,10.80
2023-04-20T07:37:34.595Z,11.70
2023-04-20T07:49:41.174Z,12.90
2023-04-20T07:53:44.000Z,13.40
2023-04-20T07:57:34.424Z,13.60
2023-04-20T08:01:39.500Z,13.80
2023-04-20T08:05:28.576Z,14.30
2023-04-20T08:09:31.452Z,14.60
2023-04-20T08:13:15.559Z,14.70
2023-04-20T08:17:47.673Z,14.90
2023-04-20T08:21:30.098Z,15.30
2023-04-20T08:41:30.542Z,17.30
2023-04-20T08:50:26.727Z,17.50
2023-04-20T08:54:10.536Z,18.00
2023-04-20T08:57:56.960Z,18.30
2023-04-20T09:01:43.442Z,18.30
2023-04-20T09:09:37.588Z,18.40
2023-04-20T09:17:42.824Z,18.60
2023-04-20T09:21:35.984Z,18.60
2023-04-20T09:26:05.248Z,18.50
2023-04-20T09:29:59.711Z,18.30
2023-04-20T09:34:01.319Z,18.20
2023-04-20T09:37:56.976Z,18.20
2023-04-20T09:46:21.090Z,18.40
2023-04-20T09:50:29.367Z,18.70
2023-04-20T09:54:50.766Z,18.50
2023-04-20T09:59:18.625Z,18.80
2023-04-20T10:08:20.589Z,18.90
2023-04-20T10:21:56.025Z,19.40
2023-04-20T10:31:00.817Z,20.20
2023-04-20T10:40:00.759Z,19.30
2023-04-20T10:53:32.562Z,16.10
2023-04-20T10:57:53.323Z,15.20
2023-04-20T11:17:03.251Z,14.30
2023-04-20T11:25:30.213Z,13.60
2023-04-20T11:33:23.472Z,13.50
2023-04-20T12:01:00.233Z,13.60
2023-04-20T12:10:00.918Z,13.70
2023-04-20T12:37:01.131Z,13.90
2023-04-20T12:57:54.431Z,14.10
2023-04-20T13:46:20.943Z,14.40
2023-04-20T14:18:26.986Z,14.60
2023-04-20T14:35:51.387Z,14.80
2023-04-20T14:39:48.132Z,14.70
2023-04-20T14:43:47.773Z,14.70
2023-04-20T15:01:59.108Z,14.50
2023-04-20T15:39:31.648Z,14.60
2023-04-20T15:44:01.960Z,14.60
2023-04-20T15:53:01.980Z,14.60
2023-04-20T16:00:55.223Z,14.60
2023-04-20T16:36:57.886Z,14.60
2023-04-20T16:46:00.576Z,14.50
2023-04-20T16:54:25.148Z,14.40
2023-04-20T17:23:44.224Z,13.80
2023-04-20T17:32:09.303Z,13.70
2023-04-20T17:36:06.081Z,13.60
2023-04-20T17:40:02.140Z,13.60
2023-04-20T17:49:02.278Z,13.40
2023-04-20T18:54:21.116Z,12.10
2023-04-20T19:26:16.785Z,11.50
2023-04-20T19:29:58.907Z,11.50
2023-04-20T19:33:41.138Z,11.50
2023-04-20T19:37:23.933Z,11.50
2023-04-20T19:41:06.987Z,11.60
2023-04-20T19:44:49.270Z,11.60
2023-04-20T19:48:31.456Z,11.60
2023-04-20T19:52:13.528Z,11.40
2023-04-20T19:55:55.902Z,11.20
2023-04-20T19:59:41.184Z,10.90
2023-04-20T20:03:24.246Z,10.70
2023-04-20T20:07:06.624Z,10.30
2023-04-20T20:10:49.233Z,9.90
2023-04-20T20:14:32.840Z,9.60
2023-04-20T20:18:14.894Z,9.20
2023-04-20T20:22:01.748Z,8.90
2023-04-20T20:25:43.896Z,8.70
2023-04-20T20:29:26.054Z,8.70
2023-04-20T20:33:08.255Z,8.70
2023-04-20T20:36:51.467Z,8.70
2023-04-20T20:40:41.551Z,8.70
2023-04-20T20:44:23.884Z,8.70
2023-04-20T20:48:06.222Z,8.70
2023-04-20T20:51:48.474Z,8.70
2023-04-20T20:55:31.892Z,8.70
2023-04-20T20:59:14.068Z,8.60
2023-04-20T21:02:57.500Z,8.50
2023-04-20T21:06:39.684Z,8.40
2023-04-20T21:10:21.834Z,8.40
2023-04-20T21:14:04.171Z,8.40
2023-04-20T21:17:46.453Z,8.30
2023-04-20T21:21:31.731Z,8.30
2023-04-20T21:25:13.862Z,8.20
2023-04-20T21:28:55.894Z,8.10
2023-04-20T21:32:38.055Z,8.10
2023-04-20T21:36:20.165Z,7.90
2023-04-20T21:40:05.163Z,7.90
2023-04-20T21:43:51.575Z,7.80
2023-04-20T21:47:36.311Z,7.70
2023-04-20T21:51:18.748Z,7.60
2023-04-20T21:55:00.898Z,7.40
2023-04-20T21:58:45.882Z,7.30
2023-04-20T22:02:28.138Z,7.20
2023-04-20T22:06:12.787Z,7.20
2023-04-20T22:09:55.517Z,7.10
2023-04-20T22:13:37.720Z,7.00
2023-04-20T22:17:19.741Z,7.00
2023-04-20T22:21:01.701Z,7.00
2023-04-20T22:24:44.619Z,7.10
2023-04-20T22:28:26.657Z,7.10
2023-04-20T22:32:08.576Z,7.10
2023-04-20T22:35:50.615Z,7.00
2023-04-20T22:39:32.625Z,7.00
2023-04-20T22:43:14.761Z,6.90
2023-04-20T22:46:56.832Z,6.80
2023-04-20T22:50:38.872Z,6.80
2023-04-20T22:54:20.865Z,6.80
2023-04-20T22:58:02.850Z,6.80
2023-04-20T23:01:44.830Z,6.80
2023-04-20T23:05:26.885Z,6.80
2023-04-20T23:09:08.866Z,6.70
2023-04-20T23:12:50.781Z,6.70
2023-04-20T23:16:33.407Z,6.70
2023-04-20T23:20:15.498Z,6.60
2023-04-20T23:23:57.852Z,6.60
2023-04-20T23:27:39.772Z,6.50
2023-04-20T23:31:21.825Z,6.40
2023-04-20T23:35:04.227Z,6.30
2023-04-20T23:38:46.353Z,6.20
2023-04-20T23:42:28.309Z,6.10
2023-04-20T23:46:10.604Z,6.00
2023-04-20T23:49:52.570Z,6.00
2023-04-20T23:53:39.309Z,5.80
2023-04-20T23:57:21.226Z,5.80
